createdAt,value
2023-05-15T00:00:47.544Z,100258.17
2023-05-15T00:03:33.810Z,100254.81
2023-05-15T00:06:06.245Z,100243.78
2023-05-15T00:08:38.489Z,100245.95
2023-05-15T00:11:10.823Z,100229.65
2023-05-15T00:13:43.420Z,100238.16
2023-05-15T00:16:15.857Z,100234.30
2023-05-15T00:18:48.365Z,100232.95
2023-05-15T00:21:20.816Z,100231.42
2023-05-15T00:23:54.124Z,100227.69
2023-05-15T00:26:26.646Z,100212.91
2023-05-15T00:28:59.105Z,100212.83
2023-05-15T00:31:31.525Z,100210.02
2023-05-15T00:34:04.220Z,100209.15
2023-05-15T00:36:36.510Z,100204.73
2023-05-15T00:39:08.865Z,100204.48
2023-05-15T00:41:43.143Z,100207.15
2023-05-15T00:44:16.907Z,100210.38
2023-05-15T00:46:50.251Z,100216.02
2023-05-15T00:49:27.082Z,100214.80
2023-05-15T00:52:02.049Z,100214.77
2023-05-15T00:54:34.517Z,100212.23
2023-05-15T00:57:09.672Z,100214.52
2023-05-15T00:59:43.329Z,100212.67
2023-05-15T01:02:17.073Z,100209.42
2023-05-15T01:04:49.676Z,100207.36
2023-05-15T01:07:21.914Z,100212.48
2023-05-15T01:09:55.942Z,100215.63
2023-05-15T01:12:31.472Z,100214.14
2023-05-15T01:15:03.909Z,100211.69
2023-05-15T01:17:36.773Z,100209.59
2023-05-15T01:20:12.345Z,100212.16
2023-05-15T01:23:07.309Z,100216.25
2023-05-15T01:26:08.026Z,100222.36
2023-05-15T01:28:47.250Z,100226.61
2023-05-15T01:31:23.967Z,100228.55
2023-05-15T01:34:03.593Z,100213.70
2023-05-15T01:36:44.431Z,100210.95
2023-05-15T01:39:23.148Z,100207.79
2023-05-15T01:42:01.673Z,100196.25
2023-05-15T01:44:37.404Z,100181.91
2023-05-15T01:47:15.094Z,100178.98
2023-05-15T01:49:50.421Z,100177.98
2023-05-15T01:52:29.000Z,100178.88
2023-05-15T01:55:03.295Z,100180.51
2023-05-15T01:57:37.001Z,100174.33
2023-05-15T02:00:11.859Z,100163.15
2023-05-15T02:02:47.278Z,100155.67
2023-05-15T02:05:21.023Z,100147.65
2023-05-15T02:07:53.727Z,100142.35
2023-05-15T02:10:27.334Z,100135.36
2023-05-15T02:13:00.074Z,100123.75
2023-05-15T02:15:33.279Z,100121.69
2023-05-15T02:18:06.574Z,100115.61
2023-05-15T02:20:38.980Z,100110.80
2023-05-15T02:23:11.227Z,100100.05
2023-05-15T02:25:51.280Z,100101.49
2023-05-15T02:28:32.051Z,100097.00
2023-05-15T02:31:12.918Z,100096.94
2023-05-15T02:33:55.627Z,100100.29
2023-05-15T02:36:34.731Z,100093.39
2023-05-15T02:39:07.686Z,100078.92
2023-05-15T02:41:41.200Z,100089.35
2023-05-15T02:44:15.262Z,100081.92
2023-05-15T02:46:48.340Z,100076.23
2023-05-15T02:49:23.230Z,100069.41
2023-05-15T02:51:56.541Z,100066.05
2023-05-15T02:54:28.765Z,100055.90
2023-05-15T02:57:01.112Z,100057.79
2023-05-15T02:59:33.576Z,100050.49
2023-05-15T03:02:06.235Z,100036.89
2023-05-15T03:04:39.014Z,100050.30
2023-05-15T03:07:11.480Z,100057.21
2023-05-15T03:09:43.763Z,100060.79
2023-05-15T03:12:16.460Z,100043.61
2023-05-15T03:14:48.675Z,100053.06
2023-05-15T03:17:21.669Z,100056.54
2023-05-15T03:19:54.624Z,100042.54
2023-05-15T03:22:26.950Z,100033.52
2023-05-15T03:25:01.918Z,100020.46
2023-05-15T03:27:34.308Z,100010.17
2023-05-15T03:30:08.754Z,100007.39
2023-05-15T03:32:41.156Z,100008.11
2023-05-15T03:35:14.208Z,100003.98
2023-05-15T03:37:46.400Z,99991.65
2023-05-15T03:40:18.731Z,99992.08
2023-05-15T03:42:53.397Z,99994.20
2023-05-15T03:45:26.237Z,99991.29
2023-05-15T03:47:58.862Z,99988.54
2023-05-15T03:50:31.742Z,99995.63
2023-05-15T03:53:05.164Z,99997.11
2023-05-15T03:55:38.313Z,100002.09
2023-05-15T03:58:11.137Z,100003.27
2023-05-15T04:00:44.172Z,99999.23
2023-05-15T04:03:16.468Z,99998.36
2023-05-15T04:05:50.177Z,99997.63
2023-05-15T04:08:22.732Z,99997.63
2023-05-15T04:10:55.199Z,100007.65
2023-05-15T04:13:27.922Z,100013.85
2023-05-15T04:16:01.261Z,100024.63
2023-05-15T04:18:33.612Z,100014.45
2023-05-15T04:21:06.489Z,100013.05
2023-05-15T04:23:39.912Z,100007.92
2023-05-15T04:26:12.468Z,100003.42
2023-05-15T04:28:56.153Z,100002.96
2023-05-15T04:31:35.346Z,99998.16
2023-05-15T04:34:08.035Z,99990.62
2023-05-15T04:36:42.819Z,99989.81
2023-05-15T04:39:15.809Z,99993.27
2023-05-15T04:41:48.189Z,99996.73
2023-05-15T04:44:21.195Z,99991.84
2023-05-15T04:46:53.645Z,99992.42
2023-05-15T04:49:26.389Z,99987.20
2023-05-15T04:51:59.118Z,99981.61
2023-05-15T04:54:31.262Z,99972.07
2023-05-15T04:57:03.712Z,99971.84
2023-05-15T04:59:36.060Z,99965.52
2023-05-15T05:02:08.549Z,99963.59
2023-05-15T05:04:43.660Z,99957.09
2023-05-15T05:07:15.899Z,99952.83
2023-05-15T05:09:48.456Z,99958.45
2023-05-15T05:12:20.929Z,99957.89
2023-05-15T05:14:53.174Z,99943.17
2023-05-15T05:17:25.275Z,99957.89
2023-05-15T05:19:57.630Z,99952.27
2023-05-15T05:22:32.023Z,99948.68
2023-05-15T05:25:04.348Z,99943.48
2023-05-15T05:27:39.284Z,99935.64
2023-05-15T05:30:13.312Z,99928.43
2023-05-15T05:32:45.617Z,99922.75
2023-05-15T05:35:18.141Z,99923.74
2023-05-15T05:37:50.503Z,99920.70
2023-05-15T05:40:22.847Z,99917.30
2023-05-15T05:42:55.372Z,99915.04
2023-05-15T05:45:27.625Z,99914.84
2023-05-15T05:48:00.368Z,99911.22
2023-05-15T05:50:33.031Z,99906.39
2023-05-15T05:53:05.971Z,99904.73
2023-05-15T05:55:38.432Z,99902.79
2023-05-15T05:58:21.684Z,99896.35
2023-05-15T06:00:57.453Z,99901.77
2023-05-15T06:03:30.011Z,99897.47
2023-05-15T06:06:02.935Z,99886.89
2023-05-15T06:08:35.176Z,99889.59
2023-05-15T06:11:07.526Z,99883.81
2023-05-15T06:13:39.691Z,99882.46
2023-05-15T06:16:12.093Z,99876.77
2023-05-15T06:18:44.866Z,99868.05
2023-05-15T06:21:17.132Z,99867.73
2023-05-15T06:23:49.665Z,99867.05
2023-05-15T06:26:22.085Z,99866.91
2023-05-15T06:28:54.319Z,99856.67
2023-05-15T06:31:26.620Z,99858.59
2023-05-15T06:33:58.984Z,99855.94
2023-05-15T06:36:31.255Z,99854.23
2023-05-15T06:39:03.824Z,99851.64
2023-05-15T06:41:36.069Z,99851.20
2023-05-15T06:44:08.602Z,99837.94
2023-05-15T06:46:40.965Z,99850.38
2023-05-15T06:49:13.290Z,99843.38
2023-05-15T06:51:45.865Z,99841.73
2023-05-15T06:54:18.377Z,99843.35
2023-05-15T06:56:51.412Z,99834.55
2023-05-15T06:59:23.729Z,99834.90
2023-05-15T07:01:56.199Z,99830.84
2023-05-15T07:04:29.040Z,99820.64
2023-05-15T07:07:01.317Z,99822.23
2023-05-15T07:09:33.474Z,99818.48
2023-05-15T07:12:06.107Z,99820.34
2023-05-15T07:14:38.513Z,99819.45
2023-05-15T07:17:11.129Z,99816.59
2023-05-15T07:19:43.438Z,99813.96
2023-05-15T07:22:16.119Z,99807.86
2023-05-15T07:24:48.755Z,99796.27
2023-05-15T07:27:21.117Z,99804.77
2023-05-15T07:29:54.148Z,99800.20
2023-05-15T07:32:26.326Z,99797.83
2023-05-15T07:34:58.702Z,99796.48
2023-05-15T07:37:30.997Z,99795.02
2023-05-15T07:40:03.887Z,99787.88
2023-05-15T07:42:35.919Z,99792.52
2023-05-15T07:45:10.095Z,99792.64
2023-05-15T07:47:45.920Z,99793.44
2023-05-15T07:50:18.869Z,99778.71
2023-05-15T07:52:51.387Z,99787.91
2023-05-15T07:55:24.299Z,99787.45
2023-05-15T07:57:56.634Z,99770.84
2023-05-15T08:00:29.162Z,99782.74
2023-05-15T08:03:01.822Z,99779.61
2023-05-15T08:05:34.094Z,99777.48
2023-05-15T08:08:06.843Z,99774.05
2023-05-15T08:10:38.984Z,99776.59
2023-05-15T08:13:11.269Z,99773.59
2023-05-15T08:15:43.392Z,99770.48
2023-05-15T08:18:15.781Z,99766.34
2023-05-15T08:20:48.744Z,99767.19
2023-05-15T08:23:21.137Z,99760.87
2023-05-15T08:25:53.610Z,99755.06
2023-05-15T08:28:25.991Z,99753.58
2023-05-15T08:30:58.352Z,99748.77
2023-05-15T08:33:30.522Z,99749.51
2023-05-15T08:36:02.836Z,99742.41
2023-05-15T08:38:34.985Z,99733.94
2023-05-15T08:41:14.766Z,99732.14
2023-05-15T08:43:47.507Z,99739.55
2023-05-15T08:46:20.532Z,99720.48
2023-05-15T08:48:54.684Z,99727.45
2023-05-15T08:51:27.139Z,99729.81
2023-05-15T08:53:59.695Z,99719.08
2023-05-15T08:56:32.565Z,99726.27
2023-05-15T08:59:05.437Z,99718.69
2023-05-15T09:01:38.969Z,99722.33
2023-05-15T09:04:11.199Z,99717.45
2023-05-15T09:06:44.863Z,99716.21
2023-05-15T09:09:17.541Z,99714.29
2023-05-15T09:11:51.983Z,99711.23
2023-05-15T09:14:24.300Z,99707.99
2023-05-15T09:16:56.544Z,99703.40
2023-05-15T09:19:29.570Z,99701.71
2023-05-15T09:22:18.220Z,99694.67
2023-05-15T09:24:53.068Z,99695.15
2023-05-15T09:27:26.374Z,99693.57
2023-05-15T09:30:09.023Z,99692.92
2023-05-15T09:32:41.286Z,99689.23
2023-05-15T09:35:32.148Z,99686.82
2023-05-15T09:38:05.788Z,99685.35
2023-05-15T09:40:37.940Z,99680.90
2023-05-15T09:43:13.094Z,99679.89
2023-05-15T09:45:48.512Z,99675.82
2023-05-15T09:48:20.879Z,99677.63
2023-05-15T09:50:53.291Z,99679.73
2023-05-15T09:53:29.579Z,99680.80
2023-05-15T09:56:02.422Z,99677.87
2023-05-15T09:58:36.232Z,99673.46
2023-05-15T10:01:13.517Z,99673.09
2023-05-15T10:03:46.342Z,99676.11
2023-05-15T10:06:21.876Z,99670.79
2023-05-15T10:08:57.834Z,99670.16
2023-05-15T10:11:30.703Z,99665.92
2023-05-15T10:14:03.560Z,99664.30
2023-05-15T10:16:37.230Z,99655.21
2023-05-15T10:19:11.468Z,99662.17
2023-05-15T10:21:45.226Z,99661.71
2023-05-15T10:24:21.153Z,99656.19
2023-05-15T10:26:56.177Z,99655.93
2023-05-15T10:29:30.283Z,99659.39
2023-05-15T10:32:04.557Z,99658.21
2023-05-15T10:34:37.175Z,99656.52
2023-05-15T10:37:10.791Z,99657.62
2023-05-15T10:39:43.541Z,99651.30
2023-05-15T10:42:16.845Z,99654.83
2023-05-15T10:44:50.191Z,99649.69
2023-05-15T10:47:22.790Z,99634.02
2023-05-15T10:49:55.139Z,99647.63
2023-05-15T10:52:27.927Z,99645.92
2023-05-15T10:55:00.233Z,99633.56
2023-05-15T10:57:33.165Z,99637.63
2023-05-15T11:00:25.624Z,99640.51
2023-05-15T11:02:58.912Z,99638.44
2023-05-15T11:05:51.737Z,99632.80
2023-05-15T11:08:29.903Z,99634.11
2023-05-15T11:11:02.587Z,99631.84
2023-05-15T11:14:01.729Z,99629.83
2023-05-15T11:17:01.383Z,99629.37
2023-05-15T11:19:38.687Z,99624.27
2023-05-15T11:22:22.128Z,99616.29
2023-05-15T11:24:56.603Z,99618.10
2023-05-15T11:27:30.598Z,99616.25
2023-05-15T11:30:14.996Z,99616.48
2023-05-15T11:33:00.628Z,99612.99
2023-05-15T11:35:36.378Z,99610.11
2023-05-15T11:38:16.490Z,99603.80
2023-05-15T11:40:52.895Z,99601.33
2023-05-15T11:43:26.828Z,99603.45
2023-05-15T11:46:06.713Z,99578.09
2023-05-15T11:48:41.752Z,99596.33
2023-05-15T11:51:20.051Z,99595.10
2023-05-15T11:53:53.979Z,99590.27
2023-05-15T11:56:28.638Z,99590.79
2023-05-15T11:59:02.447Z,99578.95
2023-05-15T12:01:45.594Z,99588.88
2023-05-15T12:04:20.223Z,99590.86
2023-05-15T12:06:52.794Z,99585.44
2023-05-15T12:09:27.519Z,99583.15
2023-05-15T12:11:58.620Z,99581.38
2023-05-15T12:14:31.714Z,99578.69
2023-05-15T12:17:04.488Z,99577.85
2023-05-15T12:19:38.249Z,99579.05
2023-05-15T12:22:10.629Z,99570.71
2023-05-15T12:24:43.595Z,99566.52
2023-05-15T12:27:16.394Z,99577.71
2023-05-15T12:29:48.867Z,99571.35
2023-05-15T12:32:21.872Z,99570.12
2023-05-15T12:34:54.421Z,99564.75
2023-05-15T12:37:26.942Z,99561.78
2023-05-15T12:40:01.532Z,99559.05
2023-05-15T12:42:38.854Z,99558.80
2023-05-15T12:45:17.345Z,99552.56
2023-05-15T12:47:51.623Z,99551.54
2023-05-15T12:50:24.975Z,99552.21
2023-05-15T12:52:59.581Z,99551.65
2023-05-15T12:55:33.550Z,99554.98
2023-05-15T12:58:08.669Z,99553.63
2023-05-15T13:00:46.094Z,99554.21
2023-05-15T13:03:21.254Z,99550.02
2023-05-15T13:05:54.611Z,99548.35
2023-05-15T13:08:27.141Z,99543.61
2023-05-15T13:11:02.804Z,99541.06
2023-05-15T13:13:48.848Z,99536.10
2023-05-15T13:16:29.612Z,99524.77
2023-05-15T13:19:02.134Z,99522.76
2023-05-15T13:21:34.305Z,99520.71
2023-05-15T13:24:09.938Z,99520.60
2023-05-15T13:26:42.236Z,99519.77
2023-05-15T13:29:14.270Z,99518.22
2023-05-15T13:31:47.054Z,99521.00
2023-05-15T13:34:19.693Z,99520.56
2023-05-15T13:36:52.236Z,99516.58
2023-05-15T13:39:24.501Z,99511.39
2023-05-15T13:41:56.817Z,99509.48
2023-05-15T13:44:29.008Z,99507.40
2023-05-15T13:47:04.401Z,99509.44
2023-05-15T13:49:36.480Z,99507.60
2023-05-15T13:52:09.561Z,99504.64
2023-05-15T13:54:41.809Z,99505.90
2023-05-15T13:57:14.021Z,99510.19
2023-05-15T13:59:46.043Z,99504.62
2023-05-15T14:02:18.405Z,99494.63
2023-05-15T14:04:51.129Z,99506.08
2023-05-15T14:07:25.091Z,99504.64
2023-05-15T14:09:57.427Z,99503.34
2023-05-15T14:12:29.771Z,99502.02
2023-05-15T14:15:03.761Z,99499.85
2023-05-15T14:17:36.254Z,99499.45
2023-05-15T14:20:11.514Z,99501.98
2023-05-15T14:22:44.814Z,99496.91
2023-05-15T14:25:16.958Z,99507.38
2023-05-15T14:27:48.952Z,99508.67
2023-05-15T14:30:23.054Z,99509.67
2023-05-15T14:32:55.492Z,99510.70
2023-05-15T14:35:27.788Z,99511.13
2023-05-15T14:38:00.200Z,99507.45
2023-05-15T14:40:32.552Z,99511.27
2023-05-15T14:43:04.719Z,99514.61
2023-05-15T14:45:37.241Z,99514.26
2023-05-15T14:48:09.726Z,99512.23
2023-05-15T14:50:42.873Z,99512.85
2023-05-15T14:53:15.714Z,99513.65
2023-05-15T14:55:47.927Z,99515.57
2023-05-15T14:58:20.215Z,99513.16
2023-05-15T15:00:52.632Z,99514.40
2023-05-15T15:03:27.629Z,99514.58
2023-05-15T15:06:00.950Z,99519.66
2023-05-15T15:08:33.890Z,99514.53
2023-05-15T15:11:07.854Z,99515.20
2023-05-15T15:13:40.327Z,99506.45
2023-05-15T15:16:12.673Z,99513.13
2023-05-15T15:18:45.022Z,99507.96
2023-05-15T15:21:17.443Z,99512.97
2023-05-15T15:23:49.861Z,99517.48
2023-05-15T15:26:22.752Z,99517.45
2023-05-15T15:28:55.351Z,99518.35
2023-05-15T15:31:27.862Z,99514.32
2023-05-15T15:34:00.382Z,99512.39
2023-05-15T15:36:32.729Z,99518.97
2023-05-15T15:39:05.593Z,99518.08
2023-05-15T15:41:40.349Z,99518.98
2023-05-15T15:44:12.961Z,99517.34
2023-05-15T15:46:45.419Z,99507.19
2023-05-15T15:49:17.807Z,99519.03
2023-05-15T15:51:50.267Z,99509.59
2023-05-15T15:54:22.840Z,99517.55
2023-05-15T15:56:55.574Z,99514.27
2023-05-15T15:59:27.978Z,99517.30
2023-05-15T16:02:00.329Z,99518.34
2023-05-15T16:04:32.429Z,99517.03
2023-05-15T16:07:05.186Z,99513.20
2023-05-15T16:09:37.664Z,99513.60
2023-05-15T16:12:10.150Z,99515.95
2023-05-15T16:14:42.566Z,99513.49
2023-05-15T16:17:14.800Z,99511.48
2023-05-15T16:19:46.901Z,99510.27
2023-05-15T16:22:23.022Z,99508.72
2023-05-15T16:24:59.658Z,99510.73
2023-05-15T16:27:32.279Z,99507.17
2023-05-15T16:30:04.751Z,99508.14
2023-05-15T16:32:37.101Z,99514.20
2023-05-15T16:35:10.560Z,99514.02
2023-05-15T16:37:42.968Z,99517.70
2023-05-15T16:40:17.768Z,99505.10
2023-05-15T16:42:49.904Z,99518.68
2023-05-15T16:45:22.259Z,99518.42
2023-05-15T16:47:54.489Z,99518.30
2023-05-15T16:50:26.986Z,99506.86
2023-05-15T16:52:59.694Z,99515.44
2023-05-15T16:55:32.504Z,99520.32
2023-05-15T16:58:04.819Z,99518.61
2023-05-15T17:00:37.114Z,99522.13
2023-05-15T17:03:09.844Z,99519.96
2023-05-15T17:05:42.247Z,99519.95
2023-05-15T17:08:14.585Z,99513.46
2023-05-15T17:10:47.294Z,99529.98
2023-05-15T17:13:19.500Z,99530.22
2023-05-15T17:15:51.983Z,99529.88
2023-05-15T17:18:24.326Z,99538.23
2023-05-15T17:20:56.387Z,99537.05
2023-05-15T17:23:28.814Z,99541.15
2023-05-15T17:26:01.009Z,99543.12
2023-05-15T17:28:33.406Z,99542.91
2023-05-15T17:31:11.941Z,99547.42
2023-05-15T17:33:44.193Z,99551.59
2023-05-15T17:36:16.692Z,99552.39
2023-05-15T17:38:48.734Z,99551.28
2023-05-15T17:41:22.152Z,99550.05
2023-05-15T17:43:54.579Z,99551.31
2023-05-15T17:46:27.029Z,99554.98
2023-05-15T17:48:59.425Z,99553.02
2023-05-15T17:51:32.143Z,99557.74
2023-05-15T17:54:04.416Z,99558.75
2023-05-15T17:56:36.924Z,99565.70
2023-05-15T17:59:09.125Z,99565.42
2023-05-15T18:01:41.420Z,99554.35
2023-05-15T18:04:13.857Z,99577.70
2023-05-15T18:06:46.588Z,99573.73
2023-05-15T18:09:23.155Z,99574.77
2023-05-15T18:11:56.902Z,99578.23
2023-05-15T18:14:29.319Z,99584.05
2023-05-15T18:17:01.801Z,99582.67
2023-05-15T18:19:34.817Z,99589.06
2023-05-15T18:22:07.521Z,99592.05
2023-05-15T18:24:40.048Z,99594.20
2023-05-15T18:27:12.392Z,99594.50
2023-05-15T18:29:45.641Z,99599.59
2023-05-15T18:32:19.381Z,99605.65
2023-05-15T18:34:51.702Z,99613.89
2023-05-15T18:37:24.136Z,99615.34
2023-05-15T18:39:58.762Z,99614.02
2023-05-15T18:42:31.695Z,99616.57
2023-05-15T18:45:04.309Z,99617.69
2023-05-15T18:47:36.822Z,99627.91
2023-05-15T18:50:10.729Z,99634.45
2023-05-15T18:52:43.509Z,99632.91
2023-05-15T18:55:15.921Z,99636.50
2023-05-15T18:57:48.174Z,99634.64
2023-05-15T19:00:36.524Z,99638.74
2023-05-15T19:03:11.074Z,99631.88
2023-05-15T19:05:43.512Z,99644.06
2023-05-15T19:08:15.881Z,99647.05
2023-05-15T19:10:51.623Z,99649.11
2023-05-15T19:13:24.093Z,99651.45
2023-05-15T19:15:56.624Z,99639.56
2023-05-15T19:18:28.794Z,99651.89
2023-05-15T19:21:01.917Z,99655.69
2023-05-15T19:23:34.385Z,99658.52
2023-05-15T19:26:06.686Z,99663.68
2023-05-15T19:28:38.955Z,99668.14
2023-05-15T19:31:20.497Z,99669.88
2023-05-15T19:34:03.280Z,99671.52
2023-05-15T19:36:35.711Z,99668.80
2023-05-15T19:39:10.424Z,99668.85
2023-05-15T19:41:43.782Z,99676.55
2023-05-15T19:44:17.079Z,99678.40
2023-05-15T19:46:49.598Z,99681.58
2023-05-15T19:49:21.776Z,99686.95
2023-05-15T19:51:54.144Z,99686.57
2023-05-15T19:54:26.488Z,99677.14
2023-05-15T19:57:02.669Z,99688.26
2023-05-15T19:59:34.926Z,99685.24
2023-05-15T20:02:10.670Z,99686.59
2023-05-15T20:04:43.291Z,99683.16
2023-05-15T20:07:15.568Z,99674.89
2023-05-15T20:09:48.225Z,99681.52
2023-05-15T20:12:20.597Z,99668.75
2023-05-15T20:14:53.105Z,99670.41
2023-05-15T20:17:25.731Z,99689.95
2023-05-15T20:19:59.237Z,99693.60
2023-05-15T20:22:31.539Z,99697.04
2023-05-15T20:25:04.298Z,99696.02
2023-05-15T20:27:36.948Z,99695.25
2023-05-15T20:30:11.169Z,99690.52
2023-05-15T20:32:43.683Z,99693.67
2023-05-15T20:35:16.022Z,99694.30
2023-05-15T20:37:48.715Z,99690.45
2023-05-15T20:40:23.140Z,99692.34
2023-05-15T20:42:57.046Z,99691.45
2023-05-15T20:45:30.066Z,99694.33
2023-05-15T20:48:02.490Z,99696.83
2023-05-15T20:50:35.002Z,99701.08
2023-05-15T20:53:07.540Z,99698.26
2023-05-15T20:55:39.789Z,99705.27
2023-05-15T20:58:12.119Z,99706.73
2023-05-15T21:00:44.552Z,99710.64
2023-05-15T21:03:16.887Z,99708.82
2023-05-15T21:05:50.126Z,99705.02
2023-05-15T21:08:22.380Z,99705.48
2023-05-15T21:10:55.721Z,99699.66
2023-05-15T21:13:30.519Z,99699.36
2023-05-15T21:16:01.505Z,99692.30
2023-05-15T21:18:33.638Z,99680.56
2023-05-15T21:21:07.246Z,99697.23
2023-05-15T21:23:39.535Z,99699.81
2023-05-15T21:26:12.588Z,99698.11
2023-05-15T21:28:44.730Z,99701.52
2023-05-15T21:31:17.085Z,99710.74
2023-05-15T21:33:49.270Z,99708.91
2023-05-15T21:36:21.513Z,99709.35
2023-05-15T21:38:53.756Z,99710.01
2023-05-15T21:41:26.597Z,99708.73
2023-05-15T21:43:58.874Z,99703.14
2023-05-15T21:46:31.563Z,99702.79
2023-05-15T21:49:04.010Z,99701.17
2023-05-15T21:51:36.318Z,99707.64
2023-05-15T21:54:08.349Z,99710.84
2023-05-15T21:56:41.271Z,99712.28
2023-05-15T21:59:14.521Z,99706.77
2023-05-15T22:01:46.988Z,99709.01
2023-05-15T22:04:19.284Z,99709.92
2023-05-15T22:06:52.132Z,99706.27
2023-05-15T22:09:24.149Z,99710.34
2023-05-15T22:11:56.676Z,99711.48
2023-05-15T22:14:28.874Z,99710.63
2023-05-15T22:17:01.724Z,99711.36
2023-05-15T22:19:34.265Z,99700.32
2023-05-15T22:22:06.908Z,99717.79
2023-05-15T22:24:39.559Z,99719.95
2023-05-15T22:27:12.309Z,99714.45
2023-05-15T22:29:44.741Z,99707.63
2023-05-15T22:32:17.152Z,99704.19
2023-05-15T22:35:08.324Z,99694.75
2023-05-15T22:37:42.196Z,99696.21
2023-05-15T22:40:16.247Z,99697.42
2023-05-15T22:42:50.333Z,99693.82
2023-05-15T22:45:22.952Z,99699.68
2023-05-15T22:47:57.219Z,99700.14
2023-05-15T22:50:29.717Z,99698.13
2023-05-15T22:53:02.036Z,99698.84
2023-05-15T22:55:34.200Z,99696.02
2023-05-15T22:58:06.635Z,99699.44
2023-05-15T23:00:39.144Z,99695.79
2023-05-15T23:03:29.090Z,99696.00
2023-05-15T23:06:01.345Z,99695.74
2023-05-15T23:08:33.662Z,99698.04
2023-05-15T23:11:06.099Z,99697.51
2023-05-15T23:13:38.668Z,99700.80
2023-05-15T23:16:11.072Z,99702.02
2023-05-15T23:18:43.724Z,99702.92
2023-05-15T23:21:16.142Z,99709.90
2023-05-15T23:23:48.804Z,99705.35
2023-05-15T23:26:22.144Z,99715.45
2023-05-15T23:28:54.749Z,99717.35
2023-05-15T23:31:28.141Z,99699.36
2023-05-15T23:34:00.626Z,99708.11
2023-05-15T23:36:32.759Z,99716.85
2023-05-15T23:39:05.874Z,99716.81
2023-05-15T23:41:38.458Z,99723.12
2023-05-15T23:44:10.957Z,99722.33
2023-05-15T23:46:43.520Z,99726.52
2023-05-15T23:49:16.360Z,99730.95
2023-05-15T23:51:48.493Z,99728.33
2023-05-15T23:54:21.501Z,99726.94
2023-05-15T23:56:53.705Z,99725.64
2023-05-15T23:59:26.432Z,99725.33
